createdAt,value
2022-08-21T00:00:11.326Z,0.00
2022-08-21T00:01:10.725Z,0.00
2022-08-21T00:02:10.696Z,0.00
2022-08-21T00:03:11.307Z,0.00
2022-08-21T00:04:11.282Z,0.00
2022-08-21T00:05:11.267Z,0.00
2022-08-21T00:06:14.033Z,0.00
2022-08-21T00:07:10.693Z,0.00
2022-08-21T00:08:10.594Z,0.00
2022-08-21T00:09:11.224Z,0.00
2022-08-21T00:10:11.217Z,0.00
2022-08-21T00:11:11.208Z,0.00
2022-08-21T00:12:10.506Z,0.00
2022-08-21T00:13:10.580Z,0.00
2022-08-21T00:14:10.480Z,0.00
2022-08-21T00:15:11.171Z,0.00
2022-08-21T00:16:11.158Z,0.00
2022-08-21T00:17:10.450Z,0.00
2022-08-21T00:18:12.393Z,0.00
2022-08-21T00:19:12.431Z,0.00
2022-08-21T00:20:10.409Z,0.00
2022-08-21T00:21:11.096Z,0.00
2022-08-21T00:22:10.414Z,0.00
2022-08-21T00:23:11.072Z,0.00
2022-08-21T00:24:10.384Z,0.00
2022-08-21T00:25:12.922Z,0.00
2022-08-21T00:26:11.069Z,0.00
2022-08-21T00:27:11.023Z,0.00
2022-08-21T00:28:11.016Z,0.00
2022-08-21T00:29:10.314Z,0.00
2022-08-21T00:30:10.314Z,0.00
2022-08-21T00:31:10.998Z,0.00
2022-08-21T00:32:12.265Z,0.00
2022-08-21T00:33:10.966Z,0.00
2022-08-21T00:34:10.957Z,0.00
2022-08-21T00:35:10.262Z,0.00
2022-08-21T00:36:10.274Z,0.00
2022-08-21T00:37:12.746Z,0.00
2022-08-21T00:38:10.916Z,0.00
2022-08-21T00:39:10.906Z,0.00
2022-08-21T00:40:11.061Z,0.00
2022-08-21T00:41:37.164Z,0.00
2022-08-21T00:42:11.869Z,0.00
2022-08-21T00:43:10.197Z,0.00
2022-08-21T00:44:10.848Z,0.00
2022-08-21T00:45:10.839Z,0.00
2022-08-21T00:46:10.841Z,0.00
2022-08-21T00:47:10.139Z,0.00
2022-08-21T00:48:10.152Z,0.00
2022-08-21T00:49:10.809Z,0.00
2022-08-21T00:50:10.131Z,0.00
2022-08-21T00:51:13.059Z,0.00
2022-08-21T00:52:10.070Z,0.00
2022-08-21T00:53:10.079Z,0.00
2022-08-21T00:54:16.912Z,0.00
2022-08-21T00:55:12.481Z,0.00
2022-08-21T00:56:10.736Z,0.00
2022-08-21T00:57:10.053Z,0.00
2022-08-21T00:58:10.717Z,0.00
2022-08-21T00:59:10.022Z,0.00
2022-08-21T01:00:10.146Z,0.00
2022-08-21T01:01:10.025Z,0.00
2022-08-21T01:02:10.662Z,0.00
2022-08-21T01:03:10.655Z,0.00
2022-08-21T01:04:10.639Z,0.00
2022-08-21T01:05:09.968Z,0.00
2022-08-21T01:06:09.968Z,0.00
2022-08-21T01:07:09.926Z,0.00
2022-08-21T01:08:10.633Z,0.00
2022-08-21T01:09:10.592Z,0.00
2022-08-21T01:10:20.587Z,0.00
2022-08-21T01:11:10.929Z,0.00
2022-08-21T01:12:10.557Z,0.00
2022-08-21T01:13:10.538Z,0.00
2022-08-21T01:14:10.530Z,0.00
2022-08-21T01:15:09.856Z,0.00
2022-08-21T01:16:10.509Z,0.00
2022-08-21T01:17:10.490Z,0.00
2022-08-21T01:18:10.495Z,0.00
2022-08-21T01:19:09.837Z,0.00
2022-08-21T01:20:10.471Z,0.00
2022-08-21T01:21:09.782Z,0.00
2022-08-21T01:22:09.778Z,0.00
2022-08-21T01:23:09.828Z,0.00
2022-08-21T01:24:09.757Z,0.00
2022-08-21T01:25:10.419Z,0.00
2022-08-21T01:26:10.400Z,0.00
2022-08-21T01:27:09.711Z,0.00
2022-08-21T01:28:10.379Z,0.00
2022-08-21T01:29:10.378Z,0.00
2022-08-21T01:30:09.672Z,0.00
2022-08-21T01:31:11.612Z,0.00
2022-08-21T01:32:09.661Z,0.00
2022-08-21T01:33:09.642Z,0.00
2022-08-21T01:34:09.647Z,0.00
2022-08-21T01:35:09.680Z,0.00
2022-08-21T01:36:09.612Z,0.00
2022-08-21T01:37:10.283Z,0.00
2022-08-21T01:38:10.278Z,0.00
2022-08-21T01:39:09.604Z,0.00
2022-08-21T01:40:09.627Z,0.00
2022-08-21T01:41:09.600Z,0.00
2022-08-21T01:42:09.594Z,0.00
2022-08-21T01:43:10.227Z,0.00
2022-08-21T01:44:09.558Z,0.00
2022-08-21T01:45:10.206Z,0.00
2022-08-21T01:46:10.957Z,0.00
2022-08-21T01:47:10.185Z,0.00
2022-08-21T01:48:10.175Z,0.00
2022-08-21T01:49:10.159Z,0.00
2022-08-21T01:50:10.151Z,0.00
2022-08-21T01:51:09.467Z,0.00
2022-08-21T01:52:09.690Z,0.00
2022-08-21T01:53:09.490Z,0.00
2022-08-21T01:54:11.359Z,0.00
2022-08-21T01:55:09.419Z,0.00
2022-08-21T01:56:12.098Z,0.00
2022-08-21T01:57:10.087Z,0.00
2022-08-21T01:58:09.399Z,0.00
2022-08-21T01:59:10.042Z,0.00
2022-08-21T02:00:10.061Z,0.00
2022-08-21T02:01:11.884Z,0.00
2022-08-21T02:02:09.339Z,0.00
2022-08-21T02:03:09.343Z,0.00
2022-08-21T02:04:09.999Z,0.00
2022-08-21T02:05:09.363Z,0.00
2022-08-21T02:06:09.973Z,0.00
2022-08-21T02:07:10.321Z,0.00
2022-08-21T02:08:09.310Z,0.00
2022-08-21T02:09:09.943Z,0.00
2022-08-21T02:10:09.294Z,0.00
2022-08-21T02:11:09.921Z,0.00
2022-08-21T02:12:09.252Z,0.00
2022-08-21T02:13:09.904Z,0.00
2022-08-21T02:14:09.223Z,0.00
2022-08-21T02:15:09.885Z,0.00
2022-08-21T02:16:09.243Z,0.00
2022-08-21T02:17:09.910Z,0.00
2022-08-21T02:18:09.847Z,0.00
2022-08-21T02:19:11.660Z,0.00
2022-08-21T02:20:09.825Z,0.00
2022-08-21T02:21:09.831Z,0.00
2022-08-21T02:22:09.795Z,0.00
2022-08-21T02:23:09.874Z,0.00
2022-08-21T02:24:09.785Z,0.00
2022-08-21T02:25:09.105Z,0.00
2022-08-21T02:26:09.088Z,0.00
2022-08-21T02:27:09.749Z,0.00
2022-08-21T02:28:09.728Z,0.00
2022-08-21T02:29:10.528Z,0.00
2022-08-21T02:30:09.029Z,0.00
2022-08-21T02:31:09.708Z,0.00
2022-08-21T02:32:09.701Z,0.00
2022-08-21T02:33:09.690Z,0.00
2022-08-21T02:34:11.430Z,0.00
2022-08-21T02:35:09.651Z,0.00
2022-08-21T02:36:08.965Z,0.00
2022-08-21T02:37:08.980Z,0.00
2022-08-21T02:38:13.094Z,0.00
2022-08-21T02:39:09.620Z,0.00
2022-08-21T02:40:09.650Z,0.00
2022-08-21T02:41:09.598Z,0.00
2022-08-21T02:42:08.892Z,0.00
2022-08-21T02:43:08.912Z,0.00
2022-08-21T02:44:09.564Z,0.00
2022-08-21T02:45:09.565Z,0.00
2022-08-21T02:46:09.539Z,0.00
2022-08-21T02:47:09.524Z,0.00
2022-08-21T02:48:09.516Z,0.00
2022-08-21T02:49:09.506Z,0.00
2022-08-21T02:50:09.502Z,0.00
2022-08-21T02:51:08.808Z,0.00
2022-08-21T02:52:09.476Z,0.00
2022-08-21T02:53:08.895Z,0.00
2022-08-21T02:54:10.756Z,0.00
2022-08-21T02:55:09.448Z,0.00
2022-08-21T02:56:08.744Z,0.00
2022-08-21T02:57:09.425Z,0.00
2022-08-21T02:58:09.406Z,0.00
2022-08-21T02:59:09.396Z,0.00
2022-08-21T03:00:09.385Z,0.00
2022-08-21T03:01:09.377Z,0.00
2022-08-21T03:02:09.386Z,0.00
2022-08-21T03:03:09.599Z,0.00
2022-08-21T03:04:09.358Z,0.00
2022-08-21T03:05:08.670Z,0.00
2022-08-21T03:06:09.328Z,0.00
2022-08-21T03:07:11.203Z,0.00
2022-08-21T03:08:09.298Z,0.00
2022-08-21T03:09:09.289Z,0.00
2022-08-21T03:10:08.601Z,0.00
2022-08-21T03:11:08.644Z,0.00
2022-08-21T03:12:09.253Z,0.00
2022-08-21T03:13:09.240Z,0.00
2022-08-21T03:14:08.564Z,0.00
2022-08-21T03:15:09.222Z,0.00
2022-08-21T03:16:10.093Z,0.00
2022-08-21T03:17:08.548Z,0.00
2022-08-21T03:18:10.952Z,0.00
2022-08-21T03:19:09.180Z,0.00
2022-08-21T03:20:09.181Z,0.00
2022-08-21T03:21:08.495Z,0.00
2022-08-21T03:22:08.506Z,0.00
2022-08-21T03:23:13.392Z,0.00
2022-08-21T03:24:10.136Z,0.00
2022-08-21T03:25:08.504Z,0.00
2022-08-21T03:26:09.105Z,0.00
2022-08-21T03:27:09.410Z,0.00
2022-08-21T03:28:08.424Z,0.00
2022-08-21T03:29:08.424Z,0.00
2022-08-21T03:30:09.077Z,0.00
2022-08-21T03:31:09.047Z,0.00
2022-08-21T03:32:09.035Z,0.00
2022-08-21T03:33:08.411Z,0.00
2022-08-21T03:34:09.015Z,0.00
2022-08-21T03:35:09.006Z,0.00
2022-08-21T03:36:08.308Z,0.00
2022-08-21T03:37:08.989Z,0.00
2022-08-21T03:38:08.288Z,0.00
2022-08-21T03:39:08.277Z,0.00
2022-08-21T03:40:09.052Z,0.00
2022-08-21T03:41:08.946Z,0.00
2022-08-21T03:42:08.277Z,0.00
2022-08-21T03:43:08.247Z,0.00
2022-08-21T03:44:08.239Z,0.00
2022-08-21T03:45:08.222Z,0.00
2022-08-21T03:46:08.897Z,0.00
2022-08-21T03:47:10.259Z,0.00
2022-08-21T03:48:08.869Z,0.00
2022-08-21T03:49:08.189Z,0.00
2022-08-21T03:50:09.100Z,0.00
2022-08-21T03:51:08.844Z,0.00
2022-08-21T03:52:09.072Z,0.00
2022-08-21T03:53:08.891Z,0.00
2022-08-21T03:54:11.997Z,0.00
2022-08-21T03:55:08.790Z,0.00
2022-08-21T03:56:08.132Z,0.00
2022-08-21T03:57:08.774Z,0.00
2022-08-21T03:58:17.014Z,0.00
2022-08-21T03:59:09.733Z,0.00
2022-08-21T04:00:09.005Z,0.00
2022-08-21T04:01:08.043Z,0.00
2022-08-21T04:02:08.082Z,0.00
2022-08-21T04:03:08.707Z,0.00
2022-08-21T04:04:08.023Z,0.00
2022-08-21T04:05:08.674Z,0.00
2022-08-21T04:06:10.460Z,0.00
2022-08-21T04:07:07.991Z,0.00
2022-08-21T04:08:07.965Z,0.00
2022-08-21T04:09:08.646Z,0.00
2022-08-21T04:10:07.965Z,0.00
2022-08-21T04:11:09.397Z,0.00
2022-08-21T04:12:07.926Z,0.00
2022-08-21T04:13:08.858Z,0.00
2022-08-21T04:14:07.928Z,0.00
2022-08-21T04:15:07.937Z,0.00
2022-08-21T04:16:08.852Z,0.00
2022-08-21T04:17:07.920Z,0.00
2022-08-21T04:18:07.867Z,0.00
2022-08-21T04:19:07.910Z,0.00
2022-08-21T04:20:07.848Z,0.00
2022-08-21T04:21:08.517Z,0.00
2022-08-21T04:22:08.528Z,0.00
2022-08-21T04:23:07.858Z,0.00
2022-08-21T04:24:07.808Z,0.00
2022-08-21T04:25:08.730Z,0.00
2022-08-21T04:26:07.797Z,0.00
2022-08-21T04:27:08.452Z,0.00
2022-08-21T04:28:08.733Z,0.00
2022-08-21T04:29:10.415Z,0.00
2022-08-21T04:30:08.421Z,0.00
2022-08-21T04:31:07.733Z,0.00
2022-08-21T04:32:08.409Z,0.00
2022-08-21T04:33:07.745Z,0.00
2022-08-21T04:34:08.382Z,0.00
2022-08-21T04:35:07.771Z,0.00
2022-08-21T04:36:07.682Z,0.00
2022-08-21T04:37:07.655Z,0.00
2022-08-21T04:38:08.333Z,0.00
2022-08-21T04:39:10.101Z,0.00
2022-08-21T04:40:08.388Z,0.00
2022-08-21T04:41:07.885Z,0.00
2022-08-21T04:42:08.315Z,0.00
2022-08-21T04:43:08.282Z,0.00
2022-08-21T04:44:08.278Z,0.00
2022-08-21T04:45:08.258Z,0.00
2022-08-21T04:46:07.571Z,0.00
2022-08-21T04:47:08.876Z,0.00
2022-08-21T04:48:13.304Z,0.00
2022-08-21T04:49:08.905Z,0.00
2022-08-21T04:50:08.215Z,0.00
2022-08-21T04:51:09.945Z,0.00
2022-08-21T04:52:08.186Z,0.00
2022-08-21T04:53:07.548Z,0.00
2022-08-21T04:54:07.497Z,0.00
2022-08-21T04:55:08.166Z,0.00
2022-08-21T04:56:07.448Z,0.00
2022-08-21T04:57:07.456Z,0.00
2022-08-21T04:58:08.119Z,0.00
2022-08-21T04:59:08.099Z,0.00
2022-08-21T05:00:13.623Z,0.00
2022-08-21T05:01:09.872Z,0.00
2022-08-21T05:02:08.082Z,0.00
2022-08-21T05:03:07.382Z,0.00
2022-08-21T05:04:07.372Z,0.00
2022-08-21T05:05:08.039Z,0.00
2022-08-21T05:06:08.031Z,0.00
2022-08-21T05:07:08.041Z,0.00
2022-08-21T05:08:08.021Z,0.00
2022-08-21T05:09:08.062Z,0.00
2022-08-21T05:10:08.003Z,0.00
2022-08-21T05:11:07.980Z,0.00
2022-08-21T05:12:07.979Z,0.00
2022-08-21T05:13:07.954Z,0.00
2022-08-21T05:14:07.962Z,0.00
2022-08-21T05:15:07.297Z,0.00
2022-08-21T05:16:08.913Z,0.00
2022-08-21T05:17:07.921Z,0.00
2022-08-21T05:18:07.255Z,0.00
2022-08-21T05:19:07.894Z,0.00
2022-08-21T05:20:07.894Z,0.00
2022-08-21T05:21:09.143Z,0.00
2022-08-21T05:22:07.854Z,0.00
2022-08-21T05:23:07.185Z,0.00
2022-08-21T05:24:07.176Z,0.00
2022-08-21T05:25:10.564Z,0.00
2022-08-21T05:26:08.556Z,0.00
2022-08-21T05:27:09.076Z,0.00
2022-08-21T05:28:07.117Z,0.00
2022-08-21T05:29:11.851Z,0.00
2022-08-21T05:30:08.840Z,0.00
2022-08-21T05:31:09.017Z,0.00
2022-08-21T05:32:07.099Z,0.00
2022-08-21T05:33:07.733Z,0.00
2022-08-21T05:34:07.728Z,0.00
2022-08-21T05:35:07.729Z,0.00
2022-08-21T05:36:07.729Z,0.00
2022-08-21T05:37:07.913Z,0.00
2022-08-21T05:38:07.016Z,0.00
2022-08-21T05:39:08.118Z,0.00
2022-08-21T05:40:22.703Z,0.00
2022-08-21T05:41:09.423Z,0.00
2022-08-21T05:42:07.649Z,0.00
2022-08-21T05:43:06.976Z,0.00
2022-08-21T05:44:10.543Z,0.00
2022-08-21T05:45:07.612Z,0.00
2022-08-21T05:46:07.613Z,0.00
2022-08-21T05:47:07.590Z,0.00
2022-08-21T05:48:07.594Z,0.00
2022-08-21T05:49:06.938Z,0.00
2022-08-21T05:50:06.875Z,0.00
2022-08-21T05:51:07.643Z,0.00
2022-08-21T05:52:07.542Z,0.00
2022-08-21T05:53:08.012Z,0.00
2022-08-21T05:54:07.514Z,0.00
2022-08-21T05:55:06.839Z,0.00
2022-08-21T05:58:20.389Z,11440.00
2022-08-21T05:59:21.338Z,10876.00
2022-08-21T06:00:19.948Z,10744.00
2022-08-21T06:01:19.494Z,11260.00
2022-08-21T06:02:21.861Z,12120.00
2022-08-21T06:03:20.334Z,12168.00
2022-08-21T06:04:21.897Z,11116.00
2022-08-21T06:05:33.416Z,11088.00
2022-08-21T06:06:20.391Z,11536.00
2022-08-21T06:07:19.402Z,12180.00
2022-08-21T06:08:19.371Z,12144.00
2022-08-21T06:09:20.002Z,12344.00
2022-08-21T06:10:20.329Z,12192.00
2022-08-21T06:11:20.812Z,12144.00
2022-08-21T06:12:19.313Z,10996.00
2022-08-21T06:13:19.310Z,11016.00
2022-08-21T06:14:20.718Z,11988.00
2022-08-21T06:15:19.933Z,12388.00
2022-08-21T06:16:19.924Z,12164.00
2022-08-21T06:17:19.234Z,11664.00
2022-08-21T06:18:19.271Z,11300.00
2022-08-21T06:19:19.894Z,11684.00
2022-08-21T06:20:19.321Z,12232.00
2022-08-21T06:21:19.258Z,12196.00
2022-08-21T06:22:19.257Z,12184.00
2022-08-21T06:23:19.188Z,12432.00
2022-08-21T06:24:19.218Z,12484.00
2022-08-21T06:25:19.835Z,12072.00
2022-08-21T06:26:19.818Z,12456.00
2022-08-21T06:27:22.429Z,13320.00
2022-08-21T06:28:20.172Z,14176.00
2022-08-21T06:29:19.119Z,13520.00
2022-08-21T06:30:20.061Z,12556.00
2022-08-21T06:31:19.081Z,12472.00
2022-08-21T06:32:19.091Z,12076.00
2022-08-21T06:33:19.741Z,13052.00
2022-08-21T06:34:19.101Z,14400.00
2022-08-21T06:35:19.081Z,15360.00
2022-08-21T06:36:19.163Z,16352.00
2022-08-21T06:37:19.692Z,15936.00
2022-08-21T06:38:19.693Z,15584.00
2022-08-21T06:39:25.267Z,15680.00
2022-08-21T06:40:20.098Z,16032.00
2022-08-21T06:41:24.176Z,16416.00
2022-08-21T06:42:21.913Z,19296.00
2022-08-21T06:43:19.965Z,20928.00
2022-08-21T06:44:18.947Z,20064.00
2022-08-21T06:45:19.613Z,17760.00
2022-08-21T06:46:19.605Z,17664.00
2022-08-21T06:47:19.594Z,19072.00
2022-08-21T06:48:19.598Z,24576.00
2022-08-21T06:49:21.513Z,29216.00
2022-08-21T06:50:18.980Z,29536.00
2022-08-21T06:51:19.557Z,24480.00
2022-08-21T06:52:18.960Z,19840.00
2022-08-21T06:53:18.940Z,13360.00
2022-08-21T06:54:21.300Z,11792.00
2022-08-21T06:55:22.376Z,10692.00
2022-08-21T06:56:19.499Z,10132.00
2022-08-21T06:57:19.505Z,9888.00
2022-08-21T06:58:18.836Z,9764.00
2022-08-21T06:59:18.813Z,9612.00
2022-08-21T07:00:18.780Z,9568.00
2022-08-21T07:01:18.892Z,9532.00
2022-08-21T07:02:18.743Z,9564.00
2022-08-21T07:03:18.735Z,9568.00
2022-08-21T07:04:19.413Z,9680.00
2022-08-21T07:05:19.416Z,9764.00
2022-08-21T07:06:18.762Z,9860.00
2022-08-21T07:07:21.133Z,9888.00
2022-08-21T07:08:19.624Z,9880.00
2022-08-21T07:09:21.539Z,9908.00
2022-08-21T07:10:22.386Z,9908.00
2022-08-21T07:11:21.095Z,9916.00
2022-08-21T07:12:18.646Z,9868.00
2022-08-21T07:13:19.376Z,9908.00
2022-08-21T07:14:20.441Z,9920.00
2022-08-21T07:15:18.635Z,9968.00
2022-08-21T07:16:18.629Z,10024.00
2022-08-21T07:17:19.285Z,10020.00
2022-08-21T07:18:19.301Z,9940.00
2022-08-21T07:19:20.998Z,9956.00
2022-08-21T07:20:18.575Z,10052.00
2022-08-21T07:21:22.644Z,10204.00
2022-08-21T07:22:21.527Z,10236.00
2022-08-21T07:23:19.230Z,10644.00
2022-08-21T07:24:18.529Z,9340.00
2022-08-21T07:25:19.200Z,10384.00
2022-08-21T07:26:18.517Z,8736.00
2022-08-21T07:27:18.504Z,10408.00
2022-08-21T07:28:19.186Z,10532.00
2022-08-21T07:29:19.181Z,10432.00
2022-08-21T07:30:19.156Z,10428.00
2022-08-21T07:31:19.138Z,10448.00
2022-08-21T07:32:21.409Z,10500.00
2022-08-21T07:33:18.442Z,10496.00
2022-08-21T07:34:18.489Z,10476.00
2022-08-21T07:35:19.104Z,10560.00
2022-08-21T07:36:19.127Z,10712.00
2022-08-21T07:37:18.405Z,10800.00
2022-08-21T07:38:18.389Z,10860.00
2022-08-21T07:39:19.067Z,10924.00
2022-08-21T07:40:18.510Z,10932.00
2022-08-21T07:41:19.027Z,10872.00
2022-08-21T07:42:19.044Z,10828.00
2022-08-21T07:43:19.013Z,10832.00
2022-08-21T07:44:18.328Z,10764.00
2022-08-21T07:45:19.024Z,10696.00
2022-08-21T07:46:19.060Z,10644.00
2022-08-21T07:47:29.546Z,10592.00
2022-08-21T07:48:19.325Z,10620.00
2022-08-21T07:49:18.269Z,10616.00
2022-08-21T07:50:18.959Z,10616.00
2022-08-21T07:51:20.676Z,10544.00
2022-08-21T07:52:18.922Z,10616.00
2022-08-21T07:53:18.223Z,10596.00
2022-08-21T07:54:18.903Z,10420.00
2022-08-21T07:55:20.063Z,10168.00
2022-08-21T07:56:18.896Z,10316.00
2022-08-21T07:57:21.815Z,10452.00
2022-08-21T07:58:18.204Z,10392.00
2022-08-21T07:59:18.845Z,10676.00
2022-08-21T08:00:18.837Z,10820.00
2022-08-21T08:01:18.875Z,11036.00
2022-08-21T08:02:18.131Z,11084.00
2022-08-21T08:03:27.532Z,11236.00
2022-08-21T08:04:24.458Z,11080.00
2022-08-21T08:05:19.796Z,10904.00
2022-08-21T08:06:18.086Z,10744.00
2022-08-21T08:07:18.078Z,10832.00
2022-08-21T08:08:18.751Z,10668.00
2022-08-21T08:09:18.063Z,10736.00
2022-08-21T08:10:18.729Z,10636.00
2022-08-21T08:11:18.720Z,10672.00
2022-08-21T08:12:18.737Z,10880.00
2022-08-21T08:13:18.009Z,10760.00
2022-08-21T08:14:18.017Z,10472.00
2022-08-21T08:15:20.453Z,10296.00
2022-08-21T08:16:18.029Z,10308.00
2022-08-21T08:17:18.662Z,10308.00
2022-08-21T08:18:18.648Z,10608.00
2022-08-21T08:19:17.964Z,10600.00
2022-08-21T08:20:18.632Z,10644.00
2022-08-21T08:21:18.622Z,10416.00
2022-08-21T08:22:18.017Z,10332.00
2022-08-21T08:23:18.602Z,10224.00
2022-08-21T08:24:19.750Z,10200.00
2022-08-21T08:25:18.616Z,9976.00
2022-08-21T08:26:18.566Z,9792.00
2022-08-21T08:27:18.556Z,9936.00
2022-08-21T08:28:18.547Z,9876.00
2022-08-21T08:29:17.866Z,9604.00
2022-08-21T08:30:18.528Z,9140.00
2022-08-21T08:31:18.517Z,9324.00
2022-08-21T08:32:18.528Z,9508.00
2022-08-21T08:33:17.808Z,9564.00
2022-08-21T08:34:23.436Z,9688.00
2022-08-21T08:35:23.622Z,9492.00
2022-08-21T08:36:18.476Z,9264.00
2022-08-21T08:37:18.450Z,9400.00
2022-08-21T08:38:17.790Z,9564.00
2022-08-21T08:39:26.839Z,8956.00
2022-08-21T08:40:19.502Z,9312.00
2022-08-21T08:41:18.412Z,8964.00
2022-08-21T08:42:34.042Z,8140.00
2022-08-21T08:43:19.396Z,7788.00
2022-08-21T08:44:17.703Z,5808.00
2022-08-21T08:45:18.402Z,8556.00
2022-08-21T08:46:18.355Z,8544.00
2022-08-21T08:47:18.354Z,7076.00
2022-08-21T08:48:18.354Z,9660.00
2022-08-21T08:49:18.328Z,9748.00
2022-08-21T08:50:18.368Z,9096.00
2022-08-21T08:51:17.609Z,8840.00
2022-08-21T08:52:18.294Z,8960.00
2022-08-21T08:53:18.290Z,9676.00
2022-08-21T08:54:17.634Z,9536.00
2022-08-21T08:55:18.268Z,9540.00
2022-08-21T08:56:18.260Z,9116.00
2022-08-21T08:57:18.259Z,9880.00
2022-08-21T08:58:18.227Z,9528.00
2022-08-21T08:59:18.241Z,9388.00
2022-08-21T09:00:17.571Z,9108.00
2022-08-21T09:01:18.330Z,8180.00
2022-08-21T09:02:17.518Z,6948.00
2022-08-21T09:03:18.190Z,5764.00
2022-08-21T09:04:18.256Z,6040.00
2022-08-21T09:05:18.161Z,6188.00
2022-08-21T09:06:17.474Z,5668.00
2022-08-21T09:07:19.650Z,5544.00
2022-08-21T09:08:18.990Z,7368.00
2022-08-21T09:09:18.127Z,6816.00
2022-08-21T09:10:18.185Z,6596.00
2022-08-21T09:11:17.435Z,8320.00
2022-08-21T09:12:17.413Z,8444.00
2022-08-21T09:13:17.414Z,8304.00
2022-08-21T09:14:18.068Z,5792.00
2022-08-21T09:15:18.348Z,5324.00
2022-08-21T09:16:19.847Z,6112.00
2022-08-21T09:17:18.039Z,6408.00
2022-08-21T09:18:17.350Z,7396.00
2022-08-21T09:19:18.020Z,7556.00
2022-08-21T09:20:20.238Z,6804.00
2022-08-21T09:21:17.999Z,6152.00
2022-08-21T09:22:17.993Z,5996.00
2022-08-21T09:23:17.388Z,5476.00
2022-08-21T09:24:17.310Z,5504.00
2022-08-21T09:25:19.825Z,6420.00
2022-08-21T09:26:17.951Z,7968.00
2022-08-21T09:27:17.302Z,7704.00
2022-08-21T09:28:17.933Z,7328.00
2022-08-21T09:29:17.223Z,7432.00
2022-08-21T09:30:18.103Z,8512.00
2022-08-21T09:31:17.893Z,8088.00
2022-08-21T09:32:18.862Z,7756.00
2022-08-21T09:33:17.185Z,7512.00
2022-08-21T09:34:17.854Z,6368.00
2022-08-21T09:35:17.843Z,6464.00
2022-08-21T09:36:17.838Z,7588.00
2022-08-21T09:37:18.013Z,7020.00
2022-08-21T09:38:17.818Z,6460.00
2022-08-21T09:39:18.026Z,6196.00
2022-08-21T09:40:17.950Z,6084.00
2022-08-21T09:41:17.088Z,6416.00
2022-08-21T09:42:17.779Z,6520.00
2022-08-21T09:43:17.767Z,6796.00
2022-08-21T09:44:17.759Z,7088.00
2022-08-21T09:45:17.103Z,7368.00
2022-08-21T09:46:17.076Z,7040.00
2022-08-21T09:47:17.723Z,5384.00
2022-08-21T09:48:17.715Z,4596.00
2022-08-21T09:49:17.029Z,6260.00
2022-08-21T09:50:17.032Z,4684.00
2022-08-21T09:51:18.926Z,4904.00
2022-08-21T09:52:17.669Z,4472.00
2022-08-21T09:53:16.983Z,5628.00
2022-08-21T09:54:18.392Z,5552.00
2022-08-21T09:55:19.413Z,5776.00
2022-08-21T09:56:17.632Z,5896.00
2022-08-21T09:57:17.633Z,5636.00
2022-08-21T09:58:17.883Z,5444.00
2022-08-21T09:59:16.920Z,5388.00
2022-08-21T10:00:16.903Z,5204.00
2022-08-21T10:01:17.644Z,5088.00
2022-08-21T10:02:17.575Z,4804.00
2022-08-21T10:03:17.583Z,4272.00
2022-08-21T10:04:17.572Z,4516.00
2022-08-21T10:05:17.549Z,4804.00
2022-08-21T10:06:16.867Z,4744.00
2022-08-21T10:07:16.858Z,4668.00
2022-08-21T10:08:17.508Z,4684.00
2022-08-21T10:09:21.291Z,4832.00
2022-08-21T10:10:17.478Z,4868.00
2022-08-21T10:11:17.496Z,4912.00
2022-08-21T10:12:16.798Z,4828.00
2022-08-21T10:13:16.788Z,5080.00
2022-08-21T10:14:16.750Z,5256.00
2022-08-21T10:15:19.592Z,5128.00
2022-08-21T10:16:17.410Z,5152.00
2022-08-21T10:17:16.734Z,5116.00
2022-08-21T10:18:16.730Z,5148.00
2022-08-21T10:19:16.733Z,5484.00
2022-08-21T10:20:16.712Z,5568.00
2022-08-21T10:21:17.385Z,5544.00
2022-08-21T10:22:16.742Z,5748.00
2022-08-21T10:23:17.362Z,4516.00
2022-08-21T10:24:21.382Z,4560.00
2022-08-21T10:25:19.603Z,5056.00
2022-08-21T10:26:17.335Z,5348.00
2022-08-21T10:27:16.664Z,5240.00
2022-08-21T10:28:17.304Z,5160.00
2022-08-21T10:29:16.618Z,5036.00
2022-08-21T10:30:17.286Z,5040.00
2022-08-21T10:31:17.276Z,5080.00
2022-08-21T10:32:25.676Z,5012.00
2022-08-21T10:33:18.247Z,5232.00
2022-08-21T10:34:17.248Z,5176.00
2022-08-21T10:35:17.238Z,5184.00
2022-08-21T10:36:17.221Z,5180.00
2022-08-21T10:37:17.212Z,5244.00
2022-08-21T10:38:39.259Z,5284.00
2022-08-21T10:39:26.872Z,5112.00
2022-08-21T10:40:18.386Z,4552.00
2022-08-21T10:41:16.481Z,3604.00
2022-08-21T10:42:17.166Z,2904.00
2022-08-21T10:43:17.409Z,2808.00
2022-08-21T10:44:17.381Z,2784.00
2022-08-21T10:45:17.122Z,2736.00
2022-08-21T10:46:17.126Z,2680.00
2022-08-21T10:47:17.113Z,2652.00
2022-08-21T10:48:16.415Z,2636.00
2022-08-21T10:49:17.094Z,2612.00
2022-08-21T10:50:16.409Z,2584.00
2022-08-21T10:51:16.432Z,2560.00
2022-08-21T10:52:16.392Z,2544.00
2022-08-21T10:53:17.047Z,2548.00
2022-08-21T10:54:20.207Z,2536.00
2022-08-21T10:55:19.285Z,2512.00
2022-08-21T10:56:17.034Z,2520.00
2022-08-21T10:57:16.366Z,2608.00
2022-08-21T10:58:18.155Z,2592.00
2022-08-21T10:59:16.328Z,2536.00
2022-08-21T11:00:16.977Z,2416.00
2022-08-21T11:01:16.365Z,2356.00
2022-08-21T11:02:16.964Z,2232.00
2022-08-21T11:03:16.937Z,2208.00
2022-08-21T11:04:16.937Z,2188.00
2022-08-21T11:05:16.242Z,2196.00
2022-08-21T11:06:16.911Z,2200.00
2022-08-21T11:07:17.490Z,2180.00
2022-08-21T11:08:16.244Z,2160.00
2022-08-21T11:09:16.874Z,2120.00
2022-08-21T11:10:16.182Z,2112.00
2022-08-21T11:11:19.957Z,2096.00
2022-08-21T11:12:17.172Z,2072.00
2022-08-21T11:13:18.129Z,2072.00
2022-08-21T11:14:16.846Z,2076.00
2022-08-21T11:15:29.033Z,2068.00
2022-08-21T11:16:18.054Z,2092.00
2022-08-21T11:17:20.134Z,2088.00
2022-08-21T11:18:18.071Z,2092.00
2022-08-21T11:19:16.777Z,2048.00
2022-08-21T11:20:16.167Z,2028.00
2022-08-21T11:21:16.126Z,2016.00
2022-08-21T11:22:16.753Z,1996.00
2022-08-21T11:23:16.726Z,1992.00
2022-08-21T11:24:16.717Z,1996.00
2022-08-21T11:25:16.060Z,1988.00
2022-08-21T11:26:16.700Z,1988.00
2022-08-21T11:27:16.684Z,1976.00
2022-08-21T11:28:16.009Z,1956.00
2022-08-21T11:29:16.661Z,1968.00
2022-08-21T11:30:16.000Z,1984.00
2022-08-21T11:31:17.384Z,1996.00
2022-08-21T11:32:16.642Z,1980.00
2022-08-21T11:33:16.631Z,1956.00
2022-08-21T11:34:15.931Z,1940.00
2022-08-21T11:35:16.618Z,1964.00
2022-08-21T11:36:15.927Z,1960.00
2022-08-21T11:37:15.914Z,1960.00
2022-08-21T11:38:15.945Z,1948.00
2022-08-21T11:39:15.923Z,1940.00
2022-08-21T11:40:15.915Z,1928.00
2022-08-21T11:41:15.872Z,1944.00
2022-08-21T11:42:17.794Z,1964.00
2022-08-21T11:43:15.869Z,1956.00
2022-08-21T11:44:15.845Z,1948.00
2022-08-21T11:45:17.255Z,1948.00
2022-08-21T11:46:16.486Z,1936.00
2022-08-21T11:47:16.487Z,1976.00
2022-08-21T11:48:15.787Z,2004.00
2022-08-21T11:49:15.776Z,1980.00
2022-08-21T11:50:32.498Z,1972.00
2022-08-21T11:51:16.807Z,1996.00
2022-08-21T11:52:16.437Z,1972.00
2022-08-21T11:53:15.801Z,1908.00
2022-08-21T11:54:16.418Z,1892.00
2022-08-21T11:55:16.413Z,1928.00
2022-08-21T11:56:16.699Z,2056.00
2022-08-21T11:57:16.382Z,2108.00
2022-08-21T11:58:15.717Z,2108.00
2022-08-21T11:59:16.352Z,2104.00
2022-08-21T12:00:16.354Z,2160.00
2022-08-21T12:01:15.641Z,2216.00
2022-08-21T12:02:15.708Z,2260.00
2022-08-21T12:03:15.654Z,2332.00
2022-08-21T12:04:15.622Z,2368.00
2022-08-21T12:05:15.627Z,2376.00
2022-08-21T12:06:24.499Z,2376.00
2022-08-21T12:07:18.413Z,2380.00
2022-08-21T12:08:15.563Z,2388.00
2022-08-21T12:09:16.243Z,2396.00
2022-08-21T12:10:16.495Z,2608.00
2022-08-21T12:11:17.975Z,2524.00
2022-08-21T12:12:16.241Z,2556.00
2022-08-21T12:13:15.517Z,2604.00
2022-08-21T12:14:15.535Z,2660.00
2022-08-21T12:15:15.528Z,2780.00
2022-08-21T12:16:15.499Z,2916.00
2022-08-21T12:17:19.858Z,2952.00
2022-08-21T12:18:15.499Z,2880.00
2022-08-21T12:19:15.460Z,2884.00
2022-08-21T12:20:15.473Z,2968.00
2022-08-21T12:21:15.487Z,2876.00
2022-08-21T12:22:16.113Z,2836.00
2022-08-21T12:23:16.100Z,2856.00
2022-08-21T12:24:16.090Z,2980.00
2022-08-21T12:25:19.657Z,2996.00
2022-08-21T12:26:16.429Z,2992.00
2022-08-21T12:27:15.385Z,3024.00
2022-08-21T12:28:16.050Z,3128.00
2022-08-21T12:29:15.355Z,3212.00
2022-08-21T12:30:15.363Z,3196.00
2022-08-21T12:31:15.348Z,3172.00
2022-08-21T12:32:15.342Z,3152.00
2022-08-21T12:33:15.994Z,3148.00
2022-08-21T12:34:15.994Z,3096.00
2022-08-21T12:35:24.644Z,3160.00
2022-08-21T12:36:16.963Z,3200.00